sensor_id;sensor_type;location;lat;lon;timestamp;temperature;humidity
16964;DHT22;8598;50.508;10.436;2023-07-29T00:02:10;18.20;99.90
16964;DHT22;8598;50.508;10.436;2023-07-29T00:04:37;18.20;99.90
16964;DHT22;8598;50.508;10.436;2023-07-29T00:07:04;18.20;99.90
16964;DHT22;8598;50.508;10.436;2023-07-29T00:09:31;18.20;99.90
16964;DHT22;8598;50.508;10.436;2023-07-29T00:11:59;18.20;99.90
16964;DHT22;8598;50.508;10.436;2023-07-29T00:14:25;18.20;99.90
16964;DHT22;8598;50.508;10.436;2023-07-29T00:16:52;18.20;99.90
16964;DHT22;8598;50.508;10.436;2023-07-29T00:19:19;18.20;99.90
16964;DHT22;8598;50.508;10.436;2023-07-29T00:21:48;18.10;99.90
16964;DHT22;8598;50.508;10.436;2023-07-29T00:24:15;18.10;99.90
16964;DHT22;8598;50.508;10.436;2023-07-29T00:26:42;18.00;99.90
16964;DHT22;8598;50.508;10.436;2023-07-29T00:29:10;18.00;99.90
16964;DHT22;8598;50.508;10.436;2023-07-29T00:31:36;18.00;99.90
16964;DHT22;8598;50.508;10.436;2023-07-29T00:34:03;18.10;99.90
16964;DHT22;8598;50.508;10.436;2023-07-29T00:36:30;18.10;99.90
16964;DHT22;8598;50.508;10.436;2023-07-29T00:38:57;18.10;99.90
16964;DHT22;8598;50.508;10.436;2023-07-29T00:41:23;18.10;99.90
16964;DHT22;8598;50.508;10.436;2023-07-29T00:43:51;18.10;99.90
16964;DHT22;8598;50.508;10.436;2023-07-29T00:46:20;18.00;99.90
16964;DHT22;8598;50.508;10.436;2023-07-29T00:48:47;18.00;99.90
16964;DHT22;8598;50.508;10.436;2023-07-29T00:51:14;18.10;99.90
16964;DHT22;8598;50.508;10.436;2023-07-29T00:53:41;18.10;99.90
16964;DHT22;8598;50.508;10.436;2023-07-29T00:56:08;18.10;99.90
16964;DHT22;8598;50.508;10.436;2023-07-29T00:58:34;18.00;99.90
16964;DHT22;8598;50.508;10.436;2023-07-29T01:01:01;18.00;99.90
16964;DHT22;8598;50.508;10.436;2023-07-29T01:03:29;18.00;99.90
16964;DHT22;8598;50.508;10.436;2023-07-29T01:06:04;18.00;99.90
16964;DHT22;8598;50.508;10.436;2023-07-29T01:08:38;17.90;99.90
16964;DHT22;8598;50.508;10.436;2023-07-29T01:11:16;17.90;99.90
16964;DHT22;8598;50.508;10.436;2023-07-29T01:13:50;17.80;99.90
16964;DHT22;8598;50.508;10.436;2023-07-29T01:16:22;17.60;99.90
16964;DHT22;8598;50.508;10.436;2023-07-29T01:18:53;17.50;99.90
16964;DHT22;8598;50.508;10.436;2023-07-29T01:21:21;17.50;99.90
16964;DHT22;8598;50.508;10.436;2023-07-29T01:23:52;17.40;99.90
16964;DHT22;8598;50.508;10.436;2023-07-29T01:26:19;17.40;99.90
16964;DHT22;8598;50.508;10.436;2023-07-29T01:28:45;17.30;99.90
16964;DHT22;8598;50.508;10.436;2023-07-29T01:31:16;17.30;99.90
16964;DHT22;8598;50.508;10.436;2023-07-29T01:33:52;17.30;99.90
16964;DHT22;8598;50.508;10.436;2023-07-29T01:36:22;17.20;99.90
16964;DHT22;8598;50.508;10.436;2023-07-29T01:38:52;17.20;99.90
16964;DHT22;8598;50.508;10.436;2023-07-29T01:41:21;17.30;99.90
16964;DHT22;8598;50.508;10.436;2023-07-29T01:43:49;17.30;99.90
16964;DHT22;8598;50.508;10.436;2023-07-29T01:46:16;17.40;99.90
16964;DHT22;8598;50.508;10.436;2023-07-29T01:48:43;17.40;99.90
16964;DHT22;8598;50.508;10.436;2023-07-29T01:51:11;17.40;99.90
16964;DHT22;8598;50.508;10.436;2023-07-29T01:53:38;17.40;99.90
16964;DHT22;8598;50.508;10.436;2023-07-29T01:56:06;17.40;99.90
16964;DHT22;8598;50.508;10.436;2023-07-29T01:58:33;17.40;99.90
16964;DHT22;8598;50.508;10.436;2023-07-29T02:01:00;17.40;99.90
16964;DHT22;8598;50.508;10.436;2023-07-29T02:03:26;17.40;99.90
16964;DHT22;8598;50.508;10.436;2023-07-29T02:05:53;17.30;99.90
16964;DHT22;8598;50.508;10.436;2023-07-29T02:08:20;17.30;99.90
16964;DHT22;8598;50.508;10.436;2023-07-29T02:10:47;17.40;99.90
16964;DHT22;8598;50.508;10.436;2023-07-29T02:13:15;17.40;99.90
16964;DHT22;8598;50.508;10.436;2023-07-29T02:15:42;17.40;99.90
16964;DHT22;8598;50.508;10.436;2023-07-29T02:18:09;17.40;99.90
16964;DHT22;8598;50.508;10.436;2023-07-29T02:20:36;17.40;99.90
16964;DHT22;8598;50.508;10.436;2023-07-29T02:23:03;17.50;99.90
16964;DHT22;8598;50.508;10.436;2023-07-29T02:25:30;17.40;99.90
16964;DHT22;8598;50.508;10.436;2023-07-29T02:27:56;17.40;99.90
16964;DHT22;8598;50.508;10.436;2023-07-29T02:30:24;17.40;99.90
16964;DHT22;8598;50.508;10.436;2023-07-29T02:32:51;17.50;99.90
16964;DHT22;8598;50.508;10.436;2023-07-29T02:35:18;17.50;99.90
16964;DHT22;8598;50.508;10.436;2023-07-29T02:37:45;17.60;99.90
16964;DHT22;8598;50.508;10.436;2023-07-29T02:40:11;17.50;99.90
16964;DHT22;8598;50.508;10.436;2023-07-29T02:42:38;17.50;99.90
16964;DHT22;8598;50.508;10.436;2023-07-29T02:45:06;17.50;99.90
16964;DHT22;8598;50.508;10.436;2023-07-29T02:47:36;17.50;99.90
16964;DHT22;8598;50.508;10.436;2023-07-29T02:50:03;17.50;99.90
16964;DHT22;8598;50.508;10.436;2023-07-29T02:52:31;17.50;99.90
16964;DHT22;8598;50.508;10.436;2023-07-29T02:54:57;17.50;99.90
16964;DHT22;8598;50.508;10.436;2023-07-29T02:57:24;17.50;99.90
16964;DHT22;8598;50.508;10.436;2023-07-29T02:59:51;17.50;99.90
16964;DHT22;8598;50.508;10.436;2023-07-29T03:02:17;17.50;99.90
16964;DHT22;8598;50.508;10.436;2023-07-29T03:04:47;17.50;99.90
16964;DHT22;8598;50.508;10.436;2023-07-29T03:07:14;17.50;99.90
16964;DHT22;8598;50.508;10.436;2023-07-29T03:09:41;17.60;99.90
16964;DHT22;8598;50.508;10.436;2023-07-29T03:12:09;17.60;99.90
16964;DHT22;8598;50.508;10.436;2023-07-29T03:14:36;17.50;99.90
16964;DHT22;8598;50.508;10.436;2023-07-29T03:17:03;17.50;99.90
16964;DHT22;8598;50.508;10.436;2023-07-29T03:19:30;17.60;99.90
16964;DHT22;8598;50.508;10.436;2023-07-29T03:21:58;17.50;99.90
16964;DHT22;8598;50.508;10.436;2023-07-29T03:24:25;17.50;99.90
16964;DHT22;8598;50.508;10.436;2023-07-29T03:26:52;17.50;99.90
16964;DHT22;8598;50.508;10.436;2023-07-29T03:29:18;17.50;99.90
16964;DHT22;8598;50.508;10.436;2023-07-29T03:31:45;17.50;99.90
16964;DHT22;8598;50.508;10.436;2023-07-29T03:34:12;17.50;99.90
16964;DHT22;8598;50.508;10.436;2023-07-29T03:36:38;17.50;99.90
16964;DHT22;8598;50.508;10.436;2023-07-29T03:39:07;17.50;99.90
16964;DHT22;8598;50.508;10.436;2023-07-29T03:41:34;17.40;99.90
16964;DHT22;8598;50.508;10.436;2023-07-29T03:44:00;17.40;99.90
16964;DHT22;8598;50.508;10.436;2023-07-29T03:46:27;17.40;99.90
16964;DHT22;8598;50.508;10.436;2023-07-29T03:48:54;17.50;99.90
16964;DHT22;8598;50.508;10.436;2023-07-29T03:51:21;17.40;99.90
16964;DHT22;8598;50.508;10.436;2023-07-29T03:53:48;17.40;99.90
16964;DHT22;8598;50.508;10.436;2023-07-29T03:56:16;17.40;99.90
16964;DHT22;8598;50.508;10.436;2023-07-29T03:58:43;17.40;99.90
16964;DHT22;8598;50.508;10.436;2023-07-29T04:01:10;17.40;99.90
16964;DHT22;8598;50.508;10.436;2023-07-29T04:03:36;17.40;99.90
16964;DHT22;8598;50.508;10.436;2023-07-29T04:06:06;17.40;99.90
16964;DHT22;8598;50.508;10.436;2023-07-29T04:08:33;17.40;99.90
16964;DHT22;8598;50.508;10.436;2023-07-29T04:10:59;17.40;99.90
16964;DHT22;8598;50.508;10.436;2023-07-29T04:13:27;17.50;99.90
16964;DHT22;8598;50.508;10.436;2023-07-29T04:15:54;17.50;99.90
16964;DHT22;8598;50.508;10.436;2023-07-29T04:18:21;17.40;99.90
16964;DHT22;8598;50.508;10.436;2023-07-29T04:20:48;17.40;99.90
16964;DHT22;8598;50.508;10.436;2023-07-29T04:23:14;17.40;99.90
16964;DHT22;8598;50.508;10.436;2023-07-29T04:25:41;17.50;99.90
16964;DHT22;8598;50.508;10.436;2023-07-29T04:28:08;17.50;99.90
16964;DHT22;8598;50.508;10.436;2023-07-29T04:30:36;17.50;99.90
16964;DHT22;8598;50.508;10.436;2023-07-29T04:33:03;17.50;99.90
16964;DHT22;8598;50.508;10.436;2023-07-29T04:35:30;17.50;99.90
16964;DHT22;8598;50.508;10.436;2023-07-29T04:37:56;17.60;99.90
16964;DHT22;8598;50.508;10.436;2023-07-29T04:40:23;17.60;99.90
16964;DHT22;8598;50.508;10.436;2023-07-29T04:42:51;17.60;99.90
16964;DHT22;8598;50.508;10.436;2023-07-29T04:45:18;17.60;99.90
16964;DHT22;8598;50.508;10.436;2023-07-29T04:47:46;17.60;99.90
16964;DHT22;8598;50.508;10.436;2023-07-29T04:50:12;17.60;99.90
16964;DHT22;8598;50.508;10.436;2023-07-29T04:52:39;17.60;99.90
16964;DHT22;8598;50.508;10.436;2023-07-29T04:55:06;17.60;99.90
16964;DHT22;8598;50.508;10.436;2023-07-29T04:57:33;17.60;99.90
16964;DHT22;8598;50.508;10.436;2023-07-29T05:00:00;17.60;99.90
16964;DHT22;8598;50.508;10.436;2023-07-29T05:02:26;17.60;99.90
16964;DHT22;8598;50.508;10.436;2023-07-29T05:04:54;17.50;99.90
16964;DHT22;8598;50.508;10.436;2023-07-29T05:07:21;17.50;99.90
16964;DHT22;8598;50.508;10.436;2023-07-29T05:09:48;17.50;99.90
16964;DHT22;8598;50.508;10.436;2023-07-29T05:12:15;17.50;99.90
16964;DHT22;8598;50.508;10.436;2023-07-29T05:14:41;17.50;99.90
16964;DHT22;8598;50.508;10.436;2023-07-29T05:17:08;17.60;99.90
16964;DHT22;8598;50.508;10.436;2023-07-29T05:19:35;17.60;99.90
16964;DHT22;8598;50.508;10.436;2023-07-29T05:22:03;17.70;99.90
16964;DHT22;8598;50.508;10.436;2023-07-29T05:24:30;17.70;99.90
16964;DHT22;8598;50.508;10.436;2023-07-29T05:26:57;17.60;99.90
16964;DHT22;8598;50.508;10.436;2023-07-29T05:29:23;17.60;99.90
16964;DHT22;8598;50.508;10.436;2023-07-29T05:31:50;17.60;99.90
16964;DHT22;8598;50.508;10.436;2023-07-29T05:34:17;17.60;99.90
16964;DHT22;8598;50.508;10.436;2023-07-29T05:36:44;17.60;99.90
16964;DHT22;8598;50.508;10.436;2023-07-29T05:39:12;17.60;99.90
16964;DHT22;8598;50.508;10.436;2023-07-29T05:41:38;17.60;99.90
16964;DHT22;8598;50.508;10.436;2023-07-29T05:44:05;17.60;99.90
16964;DHT22;8598;50.508;10.436;2023-07-29T05:46:32;17.70;99.90
16964;DHT22;8598;50.508;10.436;2023-07-29T05:48:58;17.60;99.90
16964;DHT22;8598;50.508;10.436;2023-07-29T05:51:25;17.60;99.90
16964;DHT22;8598;50.508;10.436;2023-07-29T05:53:52;17.70;99.90
16964;DHT22;8598;50.508;10.436;2023-07-29T05:56:20;17.70;99.90
16964;DHT22;8598;50.508;10.436;2023-07-29T05:58:47;17.70;99.90
16964;DHT22;8598;50.508;10.436;2023-07-29T06:01:15;17.70;99.90
16964;DHT22;8598;50.508;10.436;2023-07-29T06:03:41;17.70;99.90
16964;DHT22;8598;50.508;10.436;2023-07-29T06:06:08;17.80;99.90
16964;DHT22;8598;50.508;10.436;2023-07-29T06:08:35;17.90;99.90
16964;DHT22;8598;50.508;10.436;2023-07-29T06:11:01;17.90;99.90
16964;DHT22;8598;50.508;10.436;2023-07-29T06:13:30;17.90;99.90
16964;DHT22;8598;50.508;10.436;2023-07-29T06:15:56;18.00;99.90
16964;DHT22;8598;50.508;10.436;2023-07-29T06:18:23;18.00;99.90
16964;DHT22;8598;50.508;10.436;2023-07-29T06:20:50;17.90;99.90
16964;DHT22;8598;50.508;10.436;2023-07-29T06:23:16;18.10;99.90
16964;DHT22;8598;50.508;10.436;2023-07-29T06:25:43;18.10;99.90
16964;DHT22;8598;50.508;10.436;2023-07-29T06:28:10;18.10;99.90
16964;DHT22;8598;50.508;10.436;2023-07-29T06:30:38;18.10;99.90
16964;DHT22;8598;50.508;10.436;2023-07-29T06:33:05;18.10;99.90
16964;DHT22;8598;50.508;10.436;2023-07-29T06:35:31;18.00;99.90
16964;DHT22;8598;50.508;10.436;2023-07-29T06:37:58;18.00;99.90
16964;DHT22;8598;50.508;10.436;2023-07-29T06:40:25;18.10;99.90
16964;DHT22;8598;50.508;10.436;2023-07-29T06:42:51;18.10;99.90
16964;DHT22;8598;50.508;10.436;2023-07-29T06:45:18;18.10;99.90
16964;DHT22;8598;50.508;10.436;2023-07-29T06:47:46;18.20;99.90
16964;DHT22;8598;50.508;10.436;2023-07-29T06:50:13;18.30;99.90
16964;DHT22;8598;50.508;10.436;2023-07-29T06:52:39;18.20;99.90
16964;DHT22;8598;50.508;10.436;2023-07-29T06:55:07;18.30;99.90
16964;DHT22;8598;50.508;10.436;2023-07-29T06:57:34;18.40;99.90
16964;DHT22;8598;50.508;10.436;2023-07-29T07:00:01;18.40;99.90
16964;DHT22;8598;50.508;10.436;2023-07-29T07:02:28;18.30;99.90
16964;DHT22;8598;50.508;10.436;2023-07-29T07:04:56;18.30;99.90
16964;DHT22;8598;50.508;10.436;2023-07-29T07:07:23;18.30;99.90
16964;DHT22;8598;50.508;10.436;2023-07-29T07:09:50;18.30;99.90
16964;DHT22;8598;50.508;10.436;2023-07-29T07:12:16;18.40;99.90
16964;DHT22;8598;50.508;10.436;2023-07-29T07:14:43;18.30;99.90
16964;DHT22;8598;50.508;10.436;2023-07-29T07:17:10;18.30;99.90
16964;DHT22;8598;50.508;10.436;2023-07-29T07:19:37;18.30;99.90
16964;DHT22;8598;50.508;10.436;2023-07-29T07:22:05;18.30;99.90
16964;DHT22;8598;50.508;10.436;2023-07-29T07:24:33;18.40;99.90
16964;DHT22;8598;50.508;10.436;2023-07-29T07:27:00;18.50;99.90
16964;DHT22;8598;50.508;10.436;2023-07-29T07:29:27;18.60;99.90
16964;DHT22;8598;50.508;10.436;2023-07-29T07:31:56;18.60;99.90
16964;DHT22;8598;50.508;10.436;2023-07-29T07:34:23;18.60;99.90
16964;DHT22;8598;50.508;10.436;2023-07-29T07:36:50;18.60;99.90
16964;DHT22;8598;50.508;10.436;2023-07-29T07:39:20;18.60;99.90
16964;DHT22;8598;50.508;10.436;2023-07-29T07:41:48;18.70;99.90
16964;DHT22;8598;50.508;10.436;2023-07-29T07:44:15;18.90;99.90
16964;DHT22;8598;50.508;10.436;2023-07-29T07:46:45;19.30;99.90
16964;DHT22;8598;50.508;10.436;2023-07-29T07:49:11;19.30;99.90
16964;DHT22;8598;50.508;10.436;2023-07-29T07:51:39;19.50;99.90
16964;DHT22;8598;50.508;10.436;2023-07-29T07:54:06;19.70;99.90
16964;DHT22;8598;50.508;10.436;2023-07-29T07:56:37;20.00;99.90
16964;DHT22;8598;50.508;10.436;2023-07-29T07:59:04;19.60;99.90
16964;DHT22;8598;50.508;10.436;2023-07-29T08:01:34;19.30;99.90
16964;DHT22;8598;50.508;10.436;2023-07-29T08:04:06;19.10;99.90
16964;DHT22;8598;50.508;10.436;2023-07-29T08:06:33;19.00;99.90
16964;DHT22;8598;50.508;10.436;2023-07-29T08:09:01;18.90;99.90
16964;DHT22;8598;50.508;10.436;2023-07-29T08:11:29;18.90;99.90
16964;DHT22;8598;50.508;10.436;2023-07-29T08:14:00;18.90;99.90
16964;DHT22;8598;50.508;10.436;2023-07-29T08:16:27;18.90;99.90
16964;DHT22;8598;50.508;10.436;2023-07-29T08:18:55;19.10;99.90
16964;DHT22;8598;50.508;10.436;2023-07-29T08:21:20;19.20;99.90
16964;DHT22;8598;50.508;10.436;2023-07-29T08:23:48;19.10;99.90
16964;DHT22;8598;50.508;10.436;2023-07-29T08:26:15;19.10;99.90
16964;DHT22;8598;50.508;10.436;2023-07-29T08:28:42;19.10;99.90
16964;DHT22;8598;50.508;10.436;2023-07-29T08:31:11;19.20;99.90
16964;DHT22;8598;50.508;10.436;2023-07-29T08:33:38;19.30;99.90
16964;DHT22;8598;50.508;10.436;2023-07-29T08:36:05;19.30;99.90
16964;DHT22;8598;50.508;10.436;2023-07-29T08:38:32;19.50;99.90
16964;DHT22;8598;50.508;10.436;2023-07-29T08:41:06;19.60;99.90
16964;DHT22;8598;50.508;10.436;2023-07-29T08:43:36;19.70;99.90
16964;DHT22;8598;50.508;10.436;2023-07-29T08:46:04;19.70;99.90
16964;DHT22;8598;50.508;10.436;2023-07-29T08:48:39;19.70;99.90
16964;DHT22;8598;50.508;10.436;2023-07-29T08:51:08;19.70;99.90
16964;DHT22;8598;50.508;10.436;2023-07-29T08:53:35;19.50;99.90
16964;DHT22;8598;50.508;10.436;2023-07-29T08:56:02;19.50;99.90
16964;DHT22;8598;50.508;10.436;2023-07-29T08:58:30;19.50;99.90
16964;DHT22;8598;50.508;10.436;2023-07-29T09:00:57;19.50;99.90
16964;DHT22;8598;50.508;10.436;2023-07-29T09:03:24;19.60;99.90
16964;DHT22;8598;50.508;10.436;2023-07-29T09:05:53;19.60;99.90
16964;DHT22;8598;50.508;10.436;2023-07-29T09:08:20;19.90;99.90
16964;DHT22;8598;50.508;10.436;2023-07-29T09:10:47;19.90;99.90
16964;DHT22;8598;50.508;10.436;2023-07-29T09:13:14;20.00;99.90
16964;DHT22;8598;50.508;10.436;2023-07-29T09:15:40;20.00;99.90
16964;DHT22;8598;50.508;10.436;2023-07-29T09:18:11;19.80;99.90
16964;DHT22;8598;50.508;10.436;2023-07-29T09:20:38;19.60;99.90
16964;DHT22;8598;50.508;10.436;2023-07-29T09:23:08;19.30;99.90
16964;DHT22;8598;50.508;10.436;2023-07-29T09:25:35;19.20;99.90
16964;DHT22;8598;50.508;10.436;2023-07-29T09:28:09;19.10;99.90
16964;DHT22;8598;50.508;10.436;2023-07-29T09:30:37;19.00;99.90
16964;DHT22;8598;50.508;10.436;2023-07-29T09:33:04;19.00;99.90
16964;DHT22;8598;50.508;10.436;2023-07-29T09:35:33;19.20;99.90
16964;DHT22;8598;50.508;10.436;2023-07-29T09:38:00;19.30;99.90
16964;DHT22;8598;50.508;10.436;2023-07-29T09:40:34;19.60;99.90
16964;DHT22;8598;50.508;10.436;2023-07-29T09:43:02;19.90;99.90
16964;DHT22;8598;50.508;10.436;2023-07-29T09:45:30;20.20;99.90
16964;DHT22;8598;50.508;10.436;2023-07-29T09:47:57;20.70;99.90
16964;DHT22;8598;50.508;10.436;2023-07-29T09:50:25;21.00;99.90
16964;DHT22;8598;50.508;10.436;2023-07-29T09:52:52;21.30;99.90
16964;DHT22;8598;50.508;10.436;2023-07-29T09:55:20;21.40;99.90
16964;DHT22;8598;50.508;10.436;2023-07-29T09:57:53;21.60;99.90
16964;DHT22;8598;50.508;10.436;2023-07-29T10:00:20;21.60;99.90
16964;DHT22;8598;50.508;10.436;2023-07-29T10:02:47;21.70;99.90
16964;DHT22;8598;50.508;10.436;2023-07-29T10:05:14;21.70;99.90
16964;DHT22;8598;50.508;10.436;2023-07-29T10:07:41;21.80;99.90
16964;DHT22;8598;50.508;10.436;2023-07-29T10:10:09;21.60;99.90
16964;DHT22;8598;50.508;10.436;2023-07-29T10:12:35;21.70;99.90
16964;DHT22;8598;50.508;10.436;2023-07-29T10:15:05;22.00;99.90
16964;DHT22;8598;50.508;10.436;2023-07-29T10:17:35;22.30;99.90
16964;DHT22;8598;50.508;10.436;2023-07-29T10:20:04;23.00;99.90
16964;DHT22;8598;50.508;10.436;2023-07-29T10:22:36;23.20;99.90
16964;DHT22;8598;50.508;10.436;2023-07-29T10:25:04;23.00;99.90
16964;DHT22;8598;50.508;10.436;2023-07-29T10:27:43;23.30;99.90
16964;DHT22;8598;50.508;10.436;2023-07-29T10:30:13;22.90;99.90
16964;DHT22;8598;50.508;10.436;2023-07-29T10:32:42;23.10;99.90
16964;DHT22;8598;50.508;10.436;2023-07-29T10:35:11;23.30;99.90
16964;DHT22;8598;50.508;10.436;2023-07-29T10:37:38;23.50;99.90
16964;DHT22;8598;50.508;10.436;2023-07-29T10:40:08;23.00;99.90
16964;DHT22;8598;50.508;10.436;2023-07-29T10:42:35;22.80;99.90
16964;DHT22;8598;50.508;10.436;2023-07-29T10:45:19;22.80;99.90
16964;DHT22;8598;50.508;10.436;2023-07-29T10:47:46;23.60;99.90
16964;DHT22;8598;50.508;10.436;2023-07-29T10:50:18;23.60;99.90
16964;DHT22;8598;50.508;10.436;2023-07-29T10:52:49;23.60;99.90
16964;DHT22;8598;50.508;10.436;2023-07-29T10:55:24;23.50;99.90
16964;DHT22;8598;50.508;10.436;2023-07-29T10:57:51;23.40;99.90
16964;DHT22;8598;50.508;10.436;2023-07-29T11:00:20;23.30;99.90
16964;DHT22;8598;50.508;10.436;2023-07-29T11:02:58;23.50;99.90
16964;DHT22;8598;50.508;10.436;2023-07-29T11:05:25;23.70;99.90
16964;DHT22;8598;50.508;10.436;2023-07-29T11:07:52;23.90;99.90
16964;DHT22;8598;50.508;10.436;2023-07-29T11:10:18;24.10;99.90
16964;DHT22;8598;50.508;10.436;2023-07-29T11:12:46;24.30;99.90
16964;DHT22;8598;50.508;10.436;2023-07-29T11:15:22;24.10;99.90
16964;DHT22;8598;50.508;10.436;2023-07-29T11:17:51;24.40;99.90
16964;DHT22;8598;50.508;10.436;2023-07-29T11:20:19;24.50;99.90
16964;DHT22;8598;50.508;10.436;2023-07-29T11:22:47;24.80;99.90
16964;DHT22;8598;50.508;10.436;2023-07-29T11:25:15;24.80;99.90
16964;DHT22;8598;50.508;10.436;2023-07-29T11:27:43;25.00;99.90
16964;DHT22;8598;50.508;10.436;2023-07-29T11:30:12;25.00;99.90
16964;DHT22;8598;50.508;10.436;2023-07-29T11:32:42;24.60;99.90
16964;DHT22;8598;50.508;10.436;2023-07-29T11:35:10;24.40;99.90
16964;DHT22;8598;50.508;10.436;2023-07-29T11:37:39;24.50;99.90
16964;DHT22;8598;50.508;10.436;2023-07-29T11:40:06;24.80;99.90
16964;DHT22;8598;50.508;10.436;2023-07-29T11:42:34;25.00;99.90
16964;DHT22;8598;50.508;10.436;2023-07-29T11:45:01;24.80;99.90
16964;DHT22;8598;50.508;10.436;2023-07-29T11:47:29;25.20;99.90
16964;DHT22;8598;50.508;10.436;2023-07-29T11:49:59;25.10;99.90
16964;DHT22;8598;50.508;10.436;2023-07-29T11:52:27;24.80;99.90
16964;DHT22;8598;50.508;10.436;2023-07-29T11:54:54;24.60;99.90
16964;DHT22;8598;50.508;10.436;2023-07-29T11:57:21;24.20;99.90
16964;DHT22;8598;50.508;10.436;2023-07-29T11:59:48;23.90;99.90
16964;DHT22;8598;50.508;10.436;2023-07-29T12:02:17;23.90;99.90
16964;DHT22;8598;50.508;10.436;2023-07-29T12:04:47;24.20;99.90
16964;DHT22;8598;50.508;10.436;2023-07-29T12:07:18;24.50;99.90
16964;DHT22;8598;50.508;10.436;2023-07-29T12:09:46;25.10;99.90
16964;DHT22;8598;50.508;10.436;2023-07-29T12:12:13;25.20;99.90
16964;DHT22;8598;50.508;10.436;2023-07-29T12:14:44;25.00;99.90
16964;DHT22;8598;50.508;10.436;2023-07-29T12:17:12;24.90;99.90
16964;DHT22;8598;50.508;10.436;2023-07-29T12:19:39;24.70;99.90
16964;DHT22;8598;50.508;10.436;2023-07-29T12:22:08;24.80;99.90
16964;DHT22;8598;50.508;10.436;2023-07-29T12:24:38;24.50;99.90
16964;DHT22;8598;50.508;10.436;2023-07-29T12:27:05;24.60;99.90
16964;DHT22;8598;50.508;10.436;2023-07-29T12:29:32;24.40;99.90
16964;DHT22;8598;50.508;10.436;2023-07-29T12:32:06;24.30;99.90
16964;DHT22;8598;50.508;10.436;2023-07-29T12:34:33;24.30;99.90
16964;DHT22;8598;50.508;10.436;2023-07-29T12:37:02;24.50;99.90
16964;DHT22;8598;50.508;10.436;2023-07-29T12:39:31;24.60;99.90
16964;DHT22;8598;50.508;10.436;2023-07-29T12:42:01;24.30;99.90
16964;DHT22;8598;50.508;10.436;2023-07-29T12:44:30;24.50;99.90
16964;DHT22;8598;50.508;10.436;2023-07-29T12:46:57;24.40;99.90
16964;DHT22;8598;50.508;10.436;2023-07-29T12:49:24;24.60;99.90
16964;DHT22;8598;50.508;10.436;2023-07-29T12:51:51;24.30;99.90
16964;DHT22;8598;50.508;10.436;2023-07-29T12:54:18;24.20;99.90
16964;DHT22;8598;50.508;10.436;2023-07-29T12:56:45;24.60;99.90
16964;DHT22;8598;50.508;10.436;2023-07-29T12:59:13;24.70;99.90
16964;DHT22;8598;50.508;10.436;2023-07-29T13:01:40;24.50;99.90
16964;DHT22;8598;50.508;10.436;2023-07-29T13:04:06;24.60;99.90
16964;DHT22;8598;50.508;10.436;2023-07-29T13:06:33;24.60;99.90
16964;DHT22;8598;50.508;10.436;2023-07-29T13:09:00;24.40;99.90
16964;DHT22;8598;50.508;10.436;2023-07-29T13:11:27;24.30;99.90
16964;DHT22;8598;50.508;10.436;2023-07-29T13:13:53;23.80;99.90
16964;DHT22;8598;50.508;10.436;2023-07-29T13:16:21;23.80;99.90
16964;DHT22;8598;50.508;10.436;2023-07-29T13:18:48;23.80;99.90
16964;DHT22;8598;50.508;10.436;2023-07-29T13:21:15;24.20;99.90
16964;DHT22;8598;50.508;10.436;2023-07-29T13:23:41;24.50;99.90
16964;DHT22;8598;50.508;10.436;2023-07-29T13:26:08;24.40;99.90
16964;DHT22;8598;50.508;10.436;2023-07-29T13:28:36;24.50;99.90
16964;DHT22;8598;50.508;10.436;2023-07-29T13:31:03;24.30;99.90
16964;DHT22;8598;50.508;10.436;2023-07-29T13:33:31;24.10;99.90
16964;DHT22;8598;50.508;10.436;2023-07-29T13:35:59;24.20;99.90
16964;DHT22;8598;50.508;10.436;2023-07-29T13:38:27;24.00;99.90
16964;DHT22;8598;50.508;10.436;2023-07-29T13:40:54;24.00;99.90
16964;DHT22;8598;50.508;10.436;2023-07-29T13:43:21;24.20;99.90
16964;DHT22;8598;50.508;10.436;2023-07-29T13:45:48;23.90;99.90
16964;DHT22;8598;50.508;10.436;2023-07-29T13:48:15;22.80;99.90
16964;DHT22;8598;50.508;10.436;2023-07-29T13:50:43;21.00;99.90
16964;DHT22;8598;50.508;10.436;2023-07-29T13:53:10;19.50;99.90
16964;DHT22;8598;50.508;10.436;2023-07-29T13:55:37;18.20;99.90
16964;DHT22;8598;50.508;10.436;2023-07-29T13:58:04;17.60;99.90
16964;DHT22;8598;50.508;10.436;2023-07-29T14:00:30;17.50;99.90
16964;DHT22;8598;50.508;10.436;2023-07-29T14:02:57;17.50;99.90
16964;DHT22;8598;50.508;10.436;2023-07-29T14:05:24;17.60;99.90
16964;DHT22;8598;50.508;10.436;2023-07-29T14:07:52;17.50;99.90
16964;DHT22;8598;50.508;10.436;2023-07-29T14:10:18;17.50;99.90
16964;DHT22;8598;50.508;10.436;2023-07-29T14:12:45;17.30;99.90
16964;DHT22;8598;50.508;10.436;2023-07-29T14:15:12;17.30;99.90
16964;DHT22;8598;50.508;10.436;2023-07-29T14:17:38;17.00;99.90
16964;DHT22;8598;50.508;10.436;2023-07-29T14:20:06;17.00;99.90
16964;DHT22;8598;50.508;10.436;2023-07-29T14:22:34;17.00;99.90
16964;DHT22;8598;50.508;10.436;2023-07-29T14:25:02;17.00;99.90
16964;DHT22;8598;50.508;10.436;2023-07-29T14:27:29;17.10;99.90
16964;DHT22;8598;50.508;10.436;2023-07-29T14:29:55;17.30;99.90
16964;DHT22;8598;50.508;10.436;2023-07-29T14:32:22;17.40;99.90
16964;DHT22;8598;50.508;10.436;2023-07-29T14:34:49;17.50;99.90
16964;DHT22;8598;50.508;10.436;2023-07-29T14:37:16;17.60;99.90
16964;DHT22;8598;50.508;10.436;2023-07-29T14:39:43;17.80;99.90
16964;DHT22;8598;50.508;10.436;2023-07-29T14:42:11;17.90;99.90
16964;DHT22;8598;50.508;10.436;2023-07-29T14:44:38;18.00;99.90
16964;DHT22;8598;50.508;10.436;2023-07-29T14:47:07;18.30;99.90
16964;DHT22;8598;50.508;10.436;2023-07-29T14:49:34;18.30;99.90
16964;DHT22;8598;50.508;10.436;2023-07-29T14:52:00;18.50;99.90
16964;DHT22;8598;50.508;10.436;2023-07-29T14:54:27;19.10;99.90
16964;DHT22;8598;50.508;10.436;2023-07-29T14:56:54;19.30;99.90
16964;DHT22;8598;50.508;10.436;2023-07-29T14:59:22;19.40;99.90
16964;DHT22;8598;50.508;10.436;2023-07-29T15:01:49;19.30;99.90
16964;DHT22;8598;50.508;10.436;2023-07-29T15:04:15;19.10;99.90
16964;DHT22;8598;50.508;10.436;2023-07-29T15:06:42;19.00;99.90
16964;DHT22;8598;50.508;10.436;2023-07-29T15:09:09;18.70;99.90
16964;DHT22;8598;50.508;10.436;2023-07-29T15:11:36;18.90;99.90
16964;DHT22;8598;50.508;10.436;2023-07-29T15:14:03;19.00;99.90
16964;DHT22;8598;50.508;10.436;2023-07-29T15:16:31;19.10;99.90
16964;DHT22;8598;50.508;10.436;2023-07-29T15:18:59;19.30;99.90
16964;DHT22;8598;50.508;10.436;2023-07-29T15:21:26;19.50;99.90
16964;DHT22;8598;50.508;10.436;2023-07-29T15:23:52;19.70;99.90
16964;DHT22;8598;50.508;10.436;2023-07-29T15:26:19;19.70;99.90
16964;DHT22;8598;50.508;10.436;2023-07-29T15:28:46;19.90;99.90
16964;DHT22;8598;50.508;10.436;2023-07-29T15:31:13;20.00;99.90
16964;DHT22;8598;50.508;10.436;2023-07-29T15:33:41;20.40;99.90